createdAt,value
2019-05-10T00:00:16.225Z,999.70
2019-05-10T00:01:16.012Z,999.70
2019-05-10T00:02:16.008Z,999.65
2019-05-10T00:03:16.013Z,999.68
2019-05-10T00:04:15.998Z,999.66
2019-05-10T00:05:15.997Z,999.70
2019-05-10T00:06:16.009Z,999.67
2019-05-10T00:07:15.991Z,999.66
2019-05-10T00:08:16.193Z,999.62
2019-05-10T00:09:15.986Z,999.71
2019-05-10T00:10:15.981Z,999.69
2019-05-10T00:11:15.987Z,999.69
2019-05-10T00:12:15.986Z,999.69
2019-05-10T00:13:15.988Z,999.71
2019-05-10T00:14:16.172Z,999.74
2019-05-10T00:15:15.976Z,999.74
2019-05-10T00:16:15.969Z,999.72
2019-05-10T00:17:16.161Z,999.74
2019-05-10T00:18:15.963Z,999.75
2019-05-10T00:19:16.165Z,999.74
2019-05-10T00:20:16.160Z,999.72
2019-05-10T00:21:16.142Z,999.77
2019-05-10T00:22:15.950Z,999.78
2019-05-10T00:23:15.941Z,999.76
2019-05-10T00:24:15.962Z,999.75
2019-05-10T00:25:16.131Z,999.76
2019-05-10T00:26:15.930Z,999.76
2019-05-10T00:27:15.929Z,999.79
2019-05-10T00:28:15.919Z,999.77
2019-05-10T00:29:15.925Z,999.76
2019-05-10T00:30:16.118Z,999.77
2019-05-10T00:31:15.914Z,999.76
2019-05-10T00:32:16.107Z,999.75
2019-05-10T00:33:15.922Z,999.76
2019-05-10T00:34:15.913Z,999.77
2019-05-10T00:35:15.901Z,999.75
2019-05-10T00:36:16.090Z,999.72
2019-05-10T00:37:15.883Z,999.77
2019-05-10T00:38:15.895Z,999.73
2019-05-10T00:39:19.248Z,999.71
2019-05-10T00:40:15.872Z,999.71
2019-05-10T00:41:15.865Z,999.71
2019-05-10T00:42:16.080Z,999.69
2019-05-10T00:43:16.069Z,999.70
2019-05-10T00:44:15.858Z,999.67
2019-05-10T00:46:15.851Z,999.73
2019-05-10T00:47:15.857Z,999.70
2019-05-10T00:48:15.846Z,999.74
2019-05-10T00:49:15.853Z,999.76
2019-05-10T00:50:15.843Z,999.75
2019-05-10T00:51:15.841Z,999.76
2019-05-10T00:52:15.883Z,999.77
2019-05-10T00:53:15.834Z,999.77
2019-05-10T00:54:15.836Z,999.78
2019-05-10T00:55:18.802Z,999.76
2019-05-10T00:56:15.818Z,999.77
2019-05-10T00:57:15.826Z,999.80
2019-05-10T00:58:16.033Z,999.73
2019-05-10T00:59:15.821Z,999.81
2019-05-10T01:00:15.814Z,999.79
2019-05-10T01:01:18.716Z,999.80
2019-05-10T01:02:15.804Z,999.81
2019-05-10T01:03:16.018Z,999.79
2019-05-10T01:04:15.785Z,999.81
2019-05-10T01:05:15.794Z,999.82
2019-05-10T01:06:15.987Z,999.81
2019-05-10T01:07:15.786Z,999.86
2019-05-10T01:08:15.774Z,999.84
2019-05-10T01:09:15.765Z,999.80
2019-05-10T01:10:15.764Z,999.85
2019-05-10T01:11:15.776Z,999.83
2019-05-10T01:12:15.777Z,999.80
2019-05-10T01:13:15.759Z,999.85
2019-05-10T01:14:15.750Z,999.83
2019-05-10T01:15:15.757Z,999.88
2019-05-10T01:16:15.759Z,999.84
2019-05-10T01:17:15.753Z,999.87
2019-05-10T01:18:15.745Z,999.87
2019-05-10T01:19:15.743Z,999.90
2019-05-10T01:20:15.725Z,999.87
2019-05-10T01:21:15.737Z,999.88
2019-05-10T01:22:15.928Z,999.86
2019-05-10T01:23:15.725Z,999.85
2019-05-10T01:24:15.730Z,999.86
2019-05-10T01:25:15.726Z,999.86
2019-05-10T01:26:15.713Z,999.88
2019-05-10T01:27:15.707Z,999.85
2019-05-10T01:28:15.709Z,999.88
2019-05-10T01:29:15.898Z,999.89
2019-05-10T01:30:15.714Z,999.94
2019-05-10T01:31:15.705Z,999.93
2019-05-10T01:32:15.911Z,999.97
2019-05-10T01:33:15.899Z,999.93
2019-05-10T01:34:15.693Z,999.97
2019-05-10T01:35:15.891Z,999.98
2019-05-10T01:36:15.685Z,999.99
2019-05-10T01:37:15.674Z,1000.00
2019-05-10T01:38:15.871Z,999.99
2019-05-10T01:39:15.661Z,999.99
2019-05-10T01:40:15.655Z,1000.02
2019-05-10T01:41:15.651Z,999.99
2019-05-10T01:42:15.663Z,1000.00
2019-05-10T01:43:15.649Z,1000.03
2019-05-10T01:44:15.647Z,1000.01
2019-05-10T01:45:15.650Z,999.98
2019-05-10T01:46:15.648Z,1000.04
2019-05-10T01:47:15.837Z,1000.05
2019-05-10T01:48:15.633Z,1000.06
2019-05-10T01:49:15.661Z,1000.06
2019-05-10T01:50:15.828Z,1000.04
2019-05-10T01:51:15.637Z,1000.02
2019-05-10T01:52:15.642Z,1000.03
2019-05-10T01:53:15.622Z,1000.08
2019-05-10T01:54:15.618Z,1000.04
2019-05-10T01:55:15.620Z,1000.08
2019-05-10T01:56:15.798Z,1000.10
2019-05-10T01:57:15.599Z,1000.09
2019-05-10T01:58:15.794Z,1000.08
2019-05-10T01:59:15.796Z,1000.11
2019-05-10T02:00:15.585Z,1000.15
2019-05-10T02:01:15.596Z,1000.11
2019-05-10T02:02:15.589Z,1000.12
2019-05-10T02:03:15.797Z,1000.12
2019-05-10T02:04:17.768Z,1000.11
2019-05-10T02:05:15.778Z,1000.12
2019-05-10T02:06:15.572Z,1000.11
2019-05-10T02:07:15.784Z,1000.11
2019-05-10T02:08:15.761Z,1000.14
2019-05-10T02:09:15.555Z,1000.18
2019-05-10T02:10:15.564Z,1000.16
2019-05-10T02:11:15.545Z,1000.17
2019-05-10T02:12:15.544Z,1000.15
2019-05-10T02:13:15.539Z,1000.16
2019-05-10T02:14:15.554Z,1000.16
2019-05-10T02:15:15.534Z,1000.15
2019-05-10T02:16:15.545Z,1000.16
2019-05-10T02:17:15.735Z,1000.18
2019-05-10T02:18:15.521Z,1000.17
2019-05-10T02:19:15.523Z,1000.18
2019-05-10T02:20:15.741Z,1000.13
2019-05-10T02:21:15.521Z,1000.20
2019-05-10T02:22:15.510Z,1000.18
2019-05-10T02:23:15.511Z,1000.21
2019-05-10T02:24:15.711Z,1000.19
2019-05-10T02:25:15.505Z,1000.22
2019-05-10T02:26:15.507Z,1000.20
2019-05-10T02:27:15.497Z,1000.23
2019-05-10T02:28:15.485Z,1000.20
2019-05-10T02:29:15.688Z,1000.23
2019-05-10T02:30:15.479Z,1000.22
2019-05-10T02:31:15.468Z,1000.22
2019-05-10T02:32:15.476Z,1000.20
2019-05-10T02:33:15.484Z,1000.25
2019-05-10T02:34:15.460Z,1000.24
2019-05-10T02:35:15.472Z,1000.21
2019-05-10T02:36:15.462Z,1000.25
2019-05-10T02:37:15.663Z,1000.24
2019-05-10T02:38:15.451Z,1000.23
2019-05-10T02:39:15.459Z,1000.25
2019-05-10T02:40:15.444Z,1000.24
2019-05-10T02:41:15.447Z,1000.20
2019-05-10T02:42:15.449Z,1000.25
2019-05-10T02:43:15.436Z,1000.20
2019-05-10T02:44:15.444Z,1000.24
2019-05-10T02:45:15.426Z,1000.22
2019-05-10T02:46:15.417Z,1000.25
2019-05-10T02:47:15.417Z,1000.33
2019-05-10T02:48:15.489Z,1000.26
2019-05-10T02:49:15.409Z,1000.31
2019-05-10T02:50:15.422Z,1000.33
2019-05-10T02:51:15.413Z,1000.31
2019-05-10T02:52:15.408Z,1000.28
2019-05-10T02:53:15.415Z,1000.28
2019-05-10T02:54:15.407Z,1000.31
2019-05-10T02:55:15.384Z,1000.28
2019-05-10T02:56:29.636Z,1000.32
2019-05-10T02:57:15.395Z,1000.30
2019-05-10T02:58:15.662Z,1000.34
2019-05-10T02:59:15.480Z,1000.36
2019-05-10T03:00:15.381Z,1000.35
2019-05-10T03:01:15.361Z,1000.36
2019-05-10T03:02:15.357Z,1000.33
2019-05-10T03:03:15.358Z,1000.36
2019-05-10T03:04:15.350Z,1000.38
2019-05-10T03:05:15.361Z,1000.38
2019-05-10T03:06:15.365Z,1000.35
2019-05-10T03:07:15.352Z,1000.38
2019-05-10T03:08:15.346Z,1000.41
2019-05-10T03:09:15.339Z,1000.41
2019-05-10T03:10:15.325Z,1000.42
2019-05-10T03:11:15.336Z,1000.39
2019-05-10T03:12:15.328Z,1000.41
2019-05-10T03:13:15.516Z,1000.39
2019-05-10T03:14:15.330Z,1000.43
2019-05-10T03:15:15.327Z,1000.41
2019-05-10T03:16:15.307Z,1000.45
2019-05-10T03:17:15.507Z,1000.44
2019-05-10T03:18:15.315Z,1000.43
2019-05-10T03:19:15.298Z,1000.44
2019-05-10T03:20:15.315Z,1000.48
2019-05-10T03:21:15.500Z,1000.47
2019-05-10T03:22:15.281Z,1000.53
2019-05-10T03:23:15.283Z,1000.57
2019-05-10T03:24:15.507Z,1000.52
2019-05-10T03:25:15.490Z,1000.52
2019-05-10T03:26:15.286Z,1000.60
2019-05-10T03:27:15.282Z,1000.57
2019-05-10T03:28:15.485Z,1000.58
2019-05-10T03:29:15.260Z,1000.62
2019-05-10T03:30:15.283Z,1000.64
2019-05-10T03:31:15.281Z,1000.62
2019-05-10T03:32:15.249Z,1000.67
2019-05-10T03:33:15.448Z,1000.67
2019-05-10T03:34:15.253Z,1000.66
2019-05-10T03:35:15.249Z,1000.65
2019-05-10T03:36:15.240Z,1000.67
2019-05-10T03:37:15.238Z,1000.78
2019-05-10T03:38:15.238Z,1000.75
2019-05-10T03:39:15.226Z,1000.75
2019-05-10T03:40:15.232Z,1000.71
2019-05-10T03:41:15.222Z,1000.74
2019-05-10T03:42:15.227Z,1000.72
2019-05-10T03:43:15.417Z,1000.79
2019-05-10T03:44:15.230Z,1000.74
2019-05-10T03:45:15.199Z,1000.75
2019-05-10T03:46:15.195Z,1000.74
2019-05-10T03:47:15.198Z,1000.73
2019-05-10T03:48:15.198Z,1000.73
2019-05-10T03:49:15.185Z,1000.71
2019-05-10T03:50:15.386Z,1000.78
2019-05-10T03:51:15.171Z,1000.83
2019-05-10T03:52:15.171Z,1000.78
2019-05-10T03:53:15.184Z,1000.82
2019-05-10T03:54:15.178Z,1000.80
2019-05-10T03:55:15.163Z,1000.84
2019-05-10T03:56:15.363Z,1000.82
2019-05-10T03:57:15.332Z,1000.85
2019-05-10T03:58:15.141Z,1000.86
2019-05-10T03:59:15.145Z,1000.91
2019-05-10T04:00:15.165Z,1000.92
2019-05-10T04:01:15.138Z,1000.87
2019-05-10T04:02:15.142Z,1000.85
2019-05-10T04:03:15.140Z,1000.92
2019-05-10T04:04:15.124Z,1000.90
2019-05-10T04:05:15.138Z,1000.91
2019-05-10T04:06:15.132Z,1000.93
2019-05-10T04:07:15.115Z,1000.96
2019-05-10T04:08:15.121Z,1000.98
2019-05-10T04:09:15.321Z,1000.98
2019-05-10T04:10:15.113Z,1000.98
2019-05-10T04:11:15.096Z,1000.98
2019-05-10T04:12:15.091Z,1001.04
2019-05-10T04:13:15.099Z,1001.03
2019-05-10T04:14:15.098Z,1001.00
2019-05-10T04:15:15.294Z,1001.03
2019-05-10T04:16:15.178Z,1001.06
2019-05-10T04:17:15.068Z,1001.06
2019-05-10T04:18:15.080Z,1001.09
2019-05-10T04:19:15.069Z,1001.09
2019-05-10T04:20:15.081Z,1001.08
2019-05-10T04:21:15.055Z,1001.09
2019-05-10T04:22:15.050Z,1001.13
2019-05-10T04:23:15.057Z,1001.15
2019-05-10T04:24:15.053Z,1001.15
2019-05-10T04:25:15.044Z,1001.20
2019-05-10T04:26:15.033Z,1001.14
2019-05-10T04:27:30.756Z,1001.13
2019-05-10T04:28:15.039Z,1001.20
2019-05-10T04:29:15.021Z,1001.20
2019-05-10T04:30:15.235Z,1001.21
2019-05-10T04:31:15.241Z,1001.22
2019-05-10T04:32:15.005Z,1001.23
2019-05-10T04:33:15.014Z,1001.22
2019-05-10T04:34:15.213Z,1001.24
2019-05-10T04:35:15.007Z,1001.25
2019-05-10T04:36:15.001Z,1001.26
2019-05-10T04:37:14.993Z,1001.27
2019-05-10T04:38:14.985Z,1001.28
2019-05-10T04:39:14.977Z,1001.26
2019-05-10T04:40:15.192Z,1001.35
2019-05-10T04:41:14.986Z,1001.37
2019-05-10T04:42:14.999Z,1001.33
2019-05-10T04:43:15.167Z,1001.35
2019-05-10T04:44:15.162Z,1001.36
2019-05-10T04:45:14.985Z,1001.32
2019-05-10T04:46:14.948Z,1001.35
2019-05-10T04:47:14.963Z,1001.38
2019-05-10T04:48:14.945Z,1001.39
2019-05-10T04:49:14.939Z,1001.42
2019-05-10T04:50:14.935Z,1001.43
2019-05-10T04:51:14.934Z,1001.40
2019-05-10T04:52:15.009Z,1001.44
2019-05-10T04:53:14.987Z,1001.47
2019-05-10T04:54:14.932Z,1001.44
2019-05-10T04:55:15.131Z,1001.44
2019-05-10T04:56:15.124Z,1001.47
2019-05-10T04:57:14.917Z,1001.52
2019-05-10T04:58:14.908Z,1001.53
2019-05-10T04:59:14.895Z,1001.57
2019-05-10T05:00:14.919Z,1001.57
2019-05-10T05:01:15.117Z,1001.58
2019-05-10T05:02:14.894Z,1001.64
2019-05-10T05:03:14.887Z,1001.62
2019-05-10T05:04:14.914Z,1001.65
2019-05-10T05:05:15.094Z,1001.67
2019-05-10T05:06:14.870Z,1001.68
2019-05-10T05:07:14.876Z,1001.69
2019-05-10T05:08:14.874Z,1001.71
2019-05-10T05:09:14.865Z,1001.69
2019-05-10T05:10:14.853Z,1001.70
2019-05-10T05:11:14.850Z,1001.69
2019-05-10T05:12:14.861Z,1001.72
2019-05-10T05:13:14.857Z,1001.70
2019-05-10T05:14:15.055Z,1001.73
2019-05-10T05:15:14.834Z,1001.74
2019-05-10T05:16:15.032Z,1001.72
2019-05-10T05:17:14.823Z,1001.78
2019-05-10T05:18:14.886Z,1001.76
2019-05-10T05:19:14.832Z,1001.84
2019-05-10T05:20:14.811Z,1001.82
2019-05-10T05:21:14.805Z,1001.82
2019-05-10T05:22:14.808Z,1001.85
2019-05-10T05:23:14.809Z,1001.88
2019-05-10T05:24:17.172Z,1001.88
2019-05-10T05:25:14.794Z,1001.86
2019-05-10T05:26:14.790Z,1001.90
2019-05-10T05:27:14.984Z,1001.91
2019-05-10T05:28:18.522Z,1001.91
2019-05-10T05:29:14.772Z,1001.93
2019-05-10T05:30:14.770Z,1001.93
2019-05-10T05:31:14.767Z,1001.94
2019-05-10T05:32:14.760Z,1001.96
2019-05-10T05:33:15.008Z,1001.98
2019-05-10T05:34:14.765Z,1002.03
2019-05-10T05:35:15.539Z,1001.97
2019-05-10T05:36:14.746Z,1001.97
2019-05-10T05:37:14.776Z,1002.00
2019-05-10T05:38:14.953Z,1002.03
2019-05-10T05:39:14.732Z,1002.03
2019-05-10T05:40:14.724Z,1002.03
2019-05-10T05:41:14.731Z,1002.06
2019-05-10T05:42:14.721Z,1002.06
2019-05-10T05:43:14.729Z,1002.07
2019-05-10T05:44:14.716Z,1002.06
2019-05-10T05:45:14.921Z,1002.09
2019-05-10T05:46:14.959Z,1002.09
2019-05-10T05:47:14.698Z,1002.12
2019-05-10T05:48:16.188Z,1002.11
2019-05-10T05:49:14.697Z,1002.14
2019-05-10T05:50:14.688Z,1002.10
2019-05-10T05:51:14.692Z,1002.11
2019-05-10T05:52:14.679Z,1002.14
2019-05-10T05:53:14.666Z,1002.17
2019-05-10T05:54:19.823Z,1002.15
2019-05-10T05:55:14.666Z,1002.18
2019-05-10T05:56:14.909Z,1002.21
2019-05-10T05:57:14.655Z,1002.21
2019-05-10T05:58:25.818Z,1002.22
2019-05-10T05:59:17.393Z,1002.27
2019-05-10T06:00:14.644Z,1002.26
2019-05-10T06:01:24.952Z,1002.29
2019-05-10T06:02:14.644Z,1002.29
2019-05-10T06:03:19.274Z,1002.32
2019-05-10T06:04:14.619Z,1002.29
2019-05-10T06:05:32.674Z,1002.33
2019-05-10T06:06:21.293Z,1002.28
2019-05-10T06:07:14.628Z,1002.30
2019-05-10T06:08:22.738Z,1002.35
2019-05-10T06:09:14.605Z,1002.37
2019-05-10T06:10:19.826Z,1002.36
2019-05-10T06:11:14.600Z,1002.39
2019-05-10T06:12:14.600Z,1002.37
2019-05-10T06:13:14.596Z,1002.37
2019-05-10T06:14:14.795Z,1002.41
2019-05-10T06:15:14.591Z,1002.43
2019-05-10T06:16:14.933Z,1002.39
2019-05-10T06:17:14.582Z,1002.42
2019-05-10T06:18:14.790Z,1002.43
2019-05-10T06:19:14.587Z,1002.46
2019-05-10T06:20:14.771Z,1002.47
2019-05-10T06:21:17.744Z,1002.47
2019-05-10T06:22:14.546Z,1002.51
2019-05-10T06:23:14.544Z,1002.52
2019-05-10T06:24:15.899Z,1002.56
2019-05-10T06:25:14.533Z,1002.55
2019-05-10T06:26:24.047Z,1002.60
2019-05-10T06:27:14.541Z,1002.62
2019-05-10T06:28:26.234Z,1002.61
2019-05-10T06:29:17.515Z,1002.61
2019-05-10T06:30:14.531Z,1002.61
2019-05-10T06:31:14.725Z,1002.65
2019-05-10T06:32:14.721Z,1002.63
2019-05-10T06:33:14.710Z,1002.63
2019-05-10T06:34:14.497Z,1002.66
2019-05-10T06:35:19.440Z,1002.67
2019-05-10T06:36:14.694Z,1002.70
2019-05-10T06:37:14.702Z,1002.72
2019-05-10T06:38:14.488Z,1002.71
2019-05-10T06:39:14.496Z,1002.76
2019-05-10T06:40:14.508Z,1002.74
2019-05-10T06:41:16.891Z,1002.79
2019-05-10T06:42:14.464Z,1002.81
2019-05-10T06:43:15.643Z,1002.85
2019-05-10T06:44:14.457Z,1002.86
2019-05-10T06:45:16.212Z,1002.84
2019-05-10T06:46:14.463Z,1002.88
2019-05-10T06:47:14.462Z,1002.87
2019-05-10T06:48:14.438Z,1002.88
2019-05-10T06:49:14.634Z,1002.89
2019-05-10T06:50:14.436Z,1002.93
2019-05-10T06:51:14.444Z,1002.91
2019-05-10T06:52:16.436Z,1002.93
2019-05-10T06:53:14.438Z,1002.97
2019-05-10T06:54:14.620Z,1002.94
2019-05-10T06:55:14.411Z,1002.98
2019-05-10T06:56:14.408Z,1003.00
2019-05-10T06:57:17.633Z,1003.01
2019-05-10T06:58:14.407Z,1003.04
2019-05-10T06:59:19.325Z,1003.06
2019-05-10T07:00:14.385Z,1003.06
2019-05-10T07:01:14.396Z,1003.11
2019-05-10T07:02:14.405Z,1003.13
2019-05-10T07:03:14.377Z,1003.12
2019-05-10T07:04:14.396Z,1003.12
2019-05-10T07:05:14.570Z,1003.12
2019-05-10T07:06:14.378Z,1003.13
2019-05-10T07:07:22.232Z,1003.17
2019-05-10T07:08:20.179Z,1003.16
2019-05-10T07:09:14.365Z,1003.20
2019-05-10T07:10:18.953Z,1003.21
2019-05-10T07:11:14.372Z,1003.28
2019-05-10T07:12:15.350Z,1003.23
2019-05-10T07:13:14.332Z,1003.26
2019-05-10T07:14:14.343Z,1003.28
2019-05-10T07:15:14.328Z,1003.29
2019-05-10T07:16:21.735Z,1003.34
2019-05-10T07:17:14.327Z,1003.32
2019-05-10T07:18:16.958Z,1003.34
2019-05-10T07:19:14.320Z,1003.35
2019-05-10T07:20:14.325Z,1003.36
2019-05-10T07:21:14.303Z,1003.37
2019-05-10T07:22:14.305Z,1003.36
2019-05-10T07:23:14.315Z,1003.38
2019-05-10T07:24:18.191Z,1003.39
2019-05-10T07:25:14.291Z,1003.39
2019-05-10T07:26:17.383Z,1003.43
2019-05-10T07:27:14.306Z,1003.48
2019-05-10T07:28:16.341Z,1003.52
2019-05-10T07:29:28.940Z,1003.51
2019-05-10T07:30:14.269Z,1003.54
2019-05-10T07:31:14.260Z,1003.55
2019-05-10T07:32:16.395Z,1003.55
2019-05-10T07:33:14.252Z,1003.56
2019-05-10T07:34:15.578Z,1003.55
2019-05-10T07:35:14.242Z,1003.58
2019-05-10T07:36:15.384Z,1003.55
2019-05-10T07:37:14.233Z,1003.61
2019-05-10T07:38:14.258Z,1003.59
2019-05-10T07:39:14.228Z,1003.65
2019-05-10T07:40:14.227Z,1003.62
2019-05-10T07:41:19.788Z,1003.70
2019-05-10T07:42:14.223Z,1003.70
2019-05-10T07:43:24.657Z,1003.67
2019-05-10T07:44:14.220Z,1003.70
2019-05-10T07:45:18.693Z,1003.70
2019-05-10T07:46:14.205Z,1003.69
2019-05-10T07:47:14.218Z,1003.72
2019-05-10T07:48:14.206Z,1003.73
2019-05-10T07:49:14.220Z,1003.73
2019-05-10T07:50:14.185Z,1003.78
2019-05-10T07:51:14.195Z,1003.77
2019-05-10T07:52:14.193Z,1003.75
2019-05-10T07:53:16.268Z,1003.77
2019-05-10T07:54:14.432Z,1003.80
2019-05-10T07:55:18.513Z,1003.82
2019-05-10T07:56:14.176Z,1003.85
2019-05-10T07:57:18.654Z,1003.86
2019-05-10T07:58:14.169Z,1003.84
2019-05-10T07:59:16.308Z,1003.85
2019-05-10T08:00:14.145Z,1003.89
2019-05-10T08:01:14.147Z,1003.92
2019-05-10T08:02:14.870Z,1003.90
2019-05-10T08:03:17.700Z,1003.95
2019-05-10T08:04:19.720Z,1003.95
2019-05-10T08:05:15.434Z,1003.96
2019-05-10T08:06:15.527Z,1003.93
2019-05-10T08:07:14.134Z,1003.99
2019-05-10T08:08:14.113Z,1003.97
2019-05-10T08:09:14.110Z,1003.98
2019-05-10T08:10:14.127Z,1004.00
2019-05-10T08:11:14.118Z,1004.03
2019-05-10T08:12:14.113Z,1004.02
2019-05-10T08:13:15.343Z,1004.05
2019-05-10T08:14:14.121Z,1004.09
2019-05-10T08:15:14.136Z,1004.08
2019-05-10T08:16:19.441Z,1004.10
2019-05-10T08:17:14.083Z,1004.08
2019-05-10T08:18:15.314Z,1004.13
2019-05-10T08:19:14.111Z,1004.09
2019-05-10T08:20:28.106Z,1004.12
2019-05-10T08:21:21.845Z,1004.10
2019-05-10T08:22:14.903Z,1004.10
2019-05-10T08:23:18.084Z,1004.10
2019-05-10T08:24:16.741Z,1004.07
2019-05-10T08:25:15.303Z,1004.07
2019-05-10T08:26:20.311Z,1004.09
2019-05-10T08:27:14.765Z,1004.08
2019-05-10T08:28:14.049Z,1004.10
2019-05-10T08:29:16.877Z,1004.13
2019-05-10T08:30:25.444Z,1004.14
2019-05-10T08:31:14.039Z,1004.13
2019-05-10T08:32:14.020Z,1004.17
2019-05-10T08:33:14.643Z,1004.24
2019-05-10T08:34:14.025Z,1004.24
2019-05-10T08:35:16.998Z,1004.27
2019-05-10T08:36:14.027Z,1004.28
2019-05-10T08:37:19.330Z,1004.30
2019-05-10T08:38:14.040Z,1004.30
2019-05-10T08:39:14.192Z,1004.30
2019-05-10T08:40:14.028Z,1004.32
2019-05-10T08:41:18.173Z,1004.32
2019-05-10T08:42:34.366Z,1004.35
2019-05-10T08:43:16.913Z,1004.36
2019-05-10T08:44:19.433Z,1004.36
2019-05-10T08:45:13.969Z,1004.39
2019-05-10T08:46:13.992Z,1004.39
2019-05-10T08:47:22.500Z,1004.38
2019-05-10T08:48:13.977Z,1004.37
2019-05-10T08:49:13.954Z,1004.38
2019-05-10T08:50:29.144Z,1004.40
2019-05-10T08:51:13.965Z,1004.40
2019-05-10T08:52:13.951Z,1004.46
2019-05-10T08:53:16.489Z,1004.42
2019-05-10T08:54:13.936Z,1004.47
2019-05-10T08:55:13.975Z,1004.46
2019-05-10T08:56:21.062Z,1004.48
2019-05-10T08:57:18.605Z,1004.49
2019-05-10T08:58:13.935Z,1004.46
2019-05-10T08:59:15.858Z,1004.57
2019-05-10T09:00:13.943Z,1004.53
2019-05-10T09:01:26.198Z,1004.54
2019-05-10T09:02:14.651Z,1004.54
2019-05-10T09:03:18.575Z,1004.58
2019-05-10T09:04:14.139Z,1004.59
2019-05-10T09:05:13.911Z,1004.61
2019-05-10T09:06:16.772Z,1004.60
2019-05-10T09:07:13.904Z,1004.61
2019-05-10T09:08:20.337Z,1004.63
2019-05-10T09:09:13.885Z,1004.64
2019-05-10T09:10:14.113Z,1004.66
2019-05-10T09:11:16.262Z,1004.71
2019-05-10T09:12:14.140Z,1004.69
2019-05-10T09:13:13.886Z,1004.73
2019-05-10T09:14:19.843Z,1004.70
2019-05-10T09:15:13.945Z,1004.75
2019-05-10T09:16:14.086Z,1004.74
2019-05-10T09:17:22.220Z,1004.77
2019-05-10T09:18:13.869Z,1004.78
2019-05-10T09:19:13.861Z,1004.83
2019-05-10T09:20:20.719Z,1004.84
2019-05-10T09:21:14.493Z,1004.78
2019-05-10T09:22:13.843Z,1004.81
2019-05-10T09:23:18.494Z,1004.90
2019-05-10T09:24:13.848Z,1004.92
2019-05-10T09:25:14.077Z,1004.90
2019-05-10T09:26:16.476Z,1004.90
2019-05-10T09:27:13.823Z,1004.92
2019-05-10T09:28:16.786Z,1004.95
2019-05-10T09:29:13.820Z,1004.97
2019-05-10T09:30:18.296Z,1004.96
2019-05-10T09:31:21.542Z,1004.98
2019-05-10T09:32:13.804Z,1005.02
2019-05-10T09:33:14.683Z,1005.04
2019-05-10T09:34:14.022Z,1005.08
2019-05-10T09:35:14.019Z,1005.08
2019-05-10T09:36:14.048Z,1005.13
2019-05-10T09:37:17.556Z,1005.12
2019-05-10T09:38:13.800Z,1005.14
2019-05-10T09:39:17.685Z,1005.14
2019-05-10T09:40:13.827Z,1005.15
2019-05-10T09:41:13.790Z,1005.18
2019-05-10T09:42:25.187Z,1005.15
2019-05-10T09:43:14.964Z,1005.16
2019-05-10T09:44:13.777Z,1005.17
2019-05-10T09:45:13.967Z,1005.17
2019-05-10T09:46:14.283Z,1005.19
2019-05-10T09:47:13.789Z,1005.18
2019-05-10T09:48:13.762Z,1005.20
2019-05-10T09:49:18.063Z,1005.22
2019-05-10T09:50:13.747Z,1005.23
2019-05-10T09:51:14.016Z,1005.25
2019-05-10T09:52:18.271Z,1005.21
2019-05-10T09:53:21.765Z,1005.22
2019-05-10T09:54:13.941Z,1005.25
2019-05-10T09:55:15.006Z,1005.26
2019-05-10T09:56:13.726Z,1005.23
2019-05-10T09:57:13.730Z,1005.27
2019-05-10T09:58:13.727Z,1005.31
2019-05-10T09:59:13.720Z,1005.31
2019-05-10T10:00:13.710Z,1005.36
2019-05-10T10:01:20.573Z,1005.38
2019-05-10T10:02:18.246Z,1005.41
2019-05-10T10:03:13.700Z,1005.41
2019-05-10T10:04:13.689Z,1005.41
2019-05-10T10:05:13.693Z,1005.39
2019-05-10T10:06:13.688Z,1005.47
2019-05-10T10:07:13.691Z,1005.46
2019-05-10T10:08:13.896Z,1005.47
2019-05-10T10:09:13.892Z,1005.47
2019-05-10T10:10:21.240Z,1005.48
2019-05-10T10:11:15.847Z,1005.49
2019-05-10T10:12:13.686Z,1005.46
2019-05-10T10:13:14.190Z,1005.47
2019-05-10T10:14:13.664Z,1005.49
2019-05-10T10:15:19.148Z,1005.49
2019-05-10T10:16:14.889Z,1005.50
2019-05-10T10:17:17.199Z,1005.51
2019-05-10T10:18:21.107Z,1005.53
2019-05-10T10:19:13.661Z,1005.54
2019-05-10T10:20:13.642Z,1005.56
2019-05-10T10:21:19.028Z,1005.55
2019-05-10T10:22:13.635Z,1005.57
2019-05-10T10:23:13.653Z,1005.55
2019-05-10T10:24:17.285Z,1005.56
2019-05-10T10:25:13.622Z,1005.58
2019-05-10T10:26:18.796Z,1005.54
2019-05-10T10:27:13.611Z,1005.57
2019-05-10T10:28:18.666Z,1005.56
2019-05-10T10:29:13.607Z,1005.56
2019-05-10T10:30:18.278Z,1005.57
2019-05-10T10:31:26.118Z,1005.61
2019-05-10T10:32:13.595Z,1005.62
2019-05-10T10:33:17.765Z,1005.61
2019-05-10T10:34:13.639Z,1005.62
2019-05-10T10:35:18.846Z,1005.66
2019-05-10T10:36:13.596Z,1005.60
2019-05-10T10:37:14.561Z,1005.60
2019-05-10T10:38:13.580Z,1005.62
2019-05-10T10:39:13.583Z,1005.58
2019-05-10T10:40:16.100Z,1005.63
2019-05-10T10:41:17.173Z,1005.61
2019-05-10T10:42:13.588Z,1005.62
2019-05-10T10:43:13.570Z,1005.63
2019-05-10T10:44:13.565Z,1005.66
2019-05-10T10:45:13.569Z,1005.65
2019-05-10T10:46:16.658Z,1005.66
2019-05-10T10:47:13.546Z,1005.67
2019-05-10T10:48:13.543Z,1005.68
2019-05-10T10:49:14.554Z,1005.67
2019-05-10T10:50:13.878Z,1005.68
2019-05-10T10:51:13.537Z,1005.67
2019-05-10T10:52:13.711Z,1005.72
2019-05-10T10:53:13.734Z,1005.66
2019-05-10T10:54:13.729Z,1005.67
2019-05-10T10:55:13.607Z,1005.68
2019-05-10T10:56:13.521Z,1005.69
2019-05-10T10:57:13.719Z,1005.69
2019-05-10T10:58:13.522Z,1005.72
2019-05-10T10:59:13.711Z,1005.70
2019-05-10T11:00:17.298Z,1005.69
2019-05-10T11:01:21.308Z,1005.72
2019-05-10T11:02:32.143Z,1005.70
2019-05-10T11:03:13.491Z,1005.69
2019-05-10T11:04:16.318Z,1005.74
2019-05-10T11:05:13.499Z,1005.75
2019-05-10T11:06:15.314Z,1005.73
2019-05-10T11:07:13.484Z,1005.70
2019-05-10T11:08:13.475Z,1005.71
2019-05-10T11:09:13.484Z,1005.72
2019-05-10T11:10:18.566Z,1005.73
2019-05-10T11:11:13.475Z,1005.73
2019-05-10T11:12:14.810Z,1005.73
2019-05-10T11:13:20.309Z,1005.72
2019-05-10T11:14:13.477Z,1005.77
2019-05-10T11:15:16.560Z,1005.73
2019-05-10T11:16:15.773Z,1005.72
2019-05-10T11:17:13.449Z,1005.72
2019-05-10T11:18:13.649Z,1005.75
2019-05-10T11:19:15.562Z,1005.72
2019-05-10T11:20:13.431Z,1005.74
2019-05-10T11:21:13.442Z,1005.72
2019-05-10T11:22:13.434Z,1005.73
2019-05-10T11:23:16.177Z,1005.73
2019-05-10T11:24:18.106Z,1005.75
2019-05-10T11:25:13.438Z,1005.77
2019-05-10T11:26:13.415Z,1005.79
2019-05-10T11:27:17.072Z,1005.75
2019-05-10T11:28:13.411Z,1005.78
2019-05-10T11:29:22.037Z,1005.77
2019-05-10T11:30:13.404Z,1005.79
2019-05-10T11:31:13.411Z,1005.79
2019-05-10T11:32:16.694Z,1005.80
2019-05-10T11:33:26.000Z,1005.78
2019-05-10T11:34:13.388Z,1005.80
2019-05-10T11:35:20.820Z,1005.82
2019-05-10T11:36:13.394Z,1005.79
2019-05-10T11:37:16.132Z,1005.82
2019-05-10T11:38:16.196Z,1005.83
2019-05-10T11:39:25.726Z,1005.84
2019-05-10T11:40:17.988Z,1005.84
2019-05-10T11:41:18.754Z,1005.86
2019-05-10T11:42:15.489Z,1005.84
2019-05-10T11:43:17.239Z,1005.85
2019-05-10T11:44:13.569Z,1005.86
2019-05-10T11:45:13.560Z,1005.89
2019-05-10T11:46:13.564Z,1005.88
2019-05-10T11:47:22.938Z,1005.87
2019-05-10T11:48:13.345Z,1005.84
2019-05-10T11:49:13.351Z,1005.87
2019-05-10T11:50:27.583Z,1005.87
2019-05-10T11:51:17.394Z,1005.92
2019-05-10T11:52:13.412Z,1005.94
2019-05-10T11:54:13.333Z,1005.92
2019-05-10T11:55:13.539Z,1005.93
2019-05-10T11:56:14.420Z,1005.89
2019-05-10T11:57:13.918Z,1005.90
2019-05-10T11:58:13.518Z,1005.91
2019-05-10T11:59:04.891Z,1005.93
2019-05-10T11:59:16.557Z,1005.93
2019-05-10T12:00:24.688Z,1005.92
2019-05-10T12:01:18.977Z,1005.92
2019-05-10T12:02:33.845Z,1005.91
2019-05-10T12:04:23.872Z,1005.95
2019-05-10T12:06:13.285Z,1005.92
2019-05-10T12:07:13.327Z,1005.94
2019-05-10T12:08:13.401Z,1005.90
2019-05-10T12:09:13.275Z,1005.90
2019-05-10T12:11:27.604Z,1005.92
2019-05-10T12:12:13.267Z,1005.91